< < Back
Terminal Aerodrome Forecast


Current Version              Previous Versions:   1  2  3  4  5  6  7  8  9  

Terminal Aerodrome Forecast

308
FTUS42 KMLB 250200 AAA
TAFMCO
TAF AMD
KMCO 250257Z 2503/2524 35006KT P6SM SCT050
     FM251800 36010KT P6SM SCT035=



Latest METAR

500
SAUS70 KWBC 251000 RRB
MTRMCO
METAR KMCO 250953Z 35008KT 10SM SCT047 18/11 A2996 RMK AO2 SLP144
T01780111 $


USA.gov is the U.S. government's official web portal to all federal, state and local government web resources and services.